Time,TemperatureF,DewpointF,PressureIn,WindDirection,WindDirectionDegrees,WindSpeedMPH,WindSpeedGustMPH,Humidity,HourlyPrecipIn,Conditions,Clouds,dailyrainin,SoftwareType,DateUTC
2013-12-28 07:11:00,33.1,30.2,30.13,SW,219,4.0,4.0,89,0.00,,,0.00,Wunderground v.1.15,2013-12-28 13:11:00,
2013-12-28 07:21:00,32.9,30.0,30.12,SSW,209,4.0,5.0,89,0.00,,,0.00,Wunderground v.1.15,2013-12-28 13:21:00,
2013-12-28 07:26:00,33.1,30.2,30.13,SSW,199,4.0,5.0,89,0.00,,,0.00,Wunderground v.1.15,2013-12-28 13:26:00,
2013-12-28 07:31:00,33.2,30.3,30.13,SSW,193,5.0,5.0,89,0.00,,,0.00,Wunderground v.1.15,2013-12-28 13:31:00,
2013-12-28 07:36:00,33.4,30.5,30.13,SW,222,5.0,5.0,89,0.00,,,0.00,Wunderground v.1.15,2013-12-28 13:36:00,
2013-12-28 07:41:00,33.8,30.9,30.13,SW,221,5.0,5.0,89,0.00,,,0.00,Wunderground v.1.15,2013-12-28 13:41:00,
2013-12-28 07:46:00,34.1,30.9,30.12,SW,215,6.0,7.0,88,0.00,,,0.00,Wunderground v.1.15,2013-12-28 13:46:00,
2013-12-28 07:51:00,34.3,31.1,30.12,SSW,199,5.0,5.0,88,0.00,,,0.00,Wunderground v.1.15,2013-12-28 13:51:00,
2013-12-28 07:56:00,34.6,31.4,30.12,SSW,199,5.0,6.0,88,0.00,,,0.00,Wunderground v.1.15,2013-12-28 13:56:00,
2013-12-28 08:06:00,35.0,31.5,30.12,SSW,211,5.0,5.0,87,0.00,,,0.00,Wunderground v.1.15,2013-12-28 14:06:00,
2013-12-28 08:11:00,35.2,31.7,30.12,SSE,168,5.0,5.0,87,0.00,,,0.00,Wunderground v.1.15,2013-12-28 14:11:00,
2013-12-28 08:21:00,35.6,32.1,30.11,SW,225,6.0,6.0,87,0.00,,,0.00,Wunderground v.1.15,2013-12-28 14:21:00,
2013-12-28 08:31:00,36.0,32.2,30.11,SW,227,6.0,8.0,86,0.00,,,0.00,Wunderground v.1.15,2013-12-28 14:31:00,
2013-12-28 08:41:00,36.5,32.7,30.11,SW,221,7.0,7.0,86,0.00,,,0.00,Wunderground v.1.15,2013-12-28 14:41:00,
2013-12-28 08:51:00,37.1,33.0,30.11,South,186,7.0,7.0,85,0.00,,,0.00,Wunderground v.1.15,2013-12-28 14:51:00,
2013-12-28 09:01:00,37.7,33.3,30.11,SSW,207,7.0,7.0,84,0.00,,,0.00,Wunderground v.1.15,2013-12-28 15:01:00,
2013-12-28 09:06:00,38.0,33.6,30.11,SW,234,7.0,7.0,84,0.00,,,0.00,Wunderground v.1.15,2013-12-28 15:06:00,
2013-12-28 09:16:00,38.4,34.0,30.11,SSW,213,7.0,7.0,84,0.00,,,0.00,Wunderground v.1.15,2013-12-28 15:16:00,
2013-12-28 09:26:00,38.8,34.1,30.11,South,190,7.0,8.0,83,0.00,,,0.00,Wunderground v.1.15,2013-12-28 15:26:00,
2013-12-28 09:36:00,39.5,34.8,30.11,SW,223,7.0,8.0,83,0.00,,,0.00,Wunderground v.1.15,2013-12-28 15:36:00,
2013-12-28 09:46:00,40.1,34.7,30.11,SW,218,8.0,9.0,81,0.00,,,0.00,Wunderground v.1.15,2013-12-28 15:46:00,
2013-12-28 09:51:00,40.4,35.0,30.11,SSW,204,8.0,8.0,81,0.00,,,0.00,Wunderground v.1.15,2013-12-28 15:51:00,
2013-12-28 10:01:00,41.1,35.4,30.11,SSW,207,8.0,11.0,80,0.00,,,0.00,Wunderground v.1.15,2013-12-28 16:01:00,
2013-12-28 10:11:00,41.8,35.8,30.10,SSW,198,8.0,9.0,79,0.00,,,0.00,Wunderground v.1.15,2013-12-28 16:11:00,
2013-12-28 10:16:00,42.2,35.8,30.10,SW,229,8.0,9.0,78,0.00,,,0.00,Wunderground v.1.15,2013-12-28 16:16:00,
2013-12-28 10:26:00,42.8,36.1,30.10,SSW,213,9.0,9.0,77,0.00,,,0.00,Wunderground v.1.15,2013-12-28 16:26:00,
2013-12-28 10:36:00,43.5,36.4,30.10,SSW,206,9.0,9.0,76,0.00,,,0.00,Wunderground v.1.15,2013-12-28 16:36:00,
2013-12-28 10:41:00,43.8,36.7,30.09,SW,223,9.0,13.0,76,0.00,,,0.00,Wunderground v.1.15,2013-12-28 16:41:00,
2013-12-28 10:51:00,44.4,37.0,30.09,SW,216,8.0,8.0,75,0.00,,,0.00,Wunderground v.1.15,2013-12-28 16:51:00,
2013-12-28 11:01:00,45.0,36.9,30.08,SW,225,9.0,10.0,73,0.00,,,0.00,Wunderground v.1.15,2013-12-28 17:01:00,
2013-12-28 11:11:00,45.4,37.2,30.07,SW,217,9.0,9.0,73,0.00,,,0.00,Wunderground v.1.15,2013-12-28 17:11:00,
2013-12-28 11:16:00,45.7,37.2,30.07,SW,227,9.0,11.0,72,0.00,,,0.00,Wunderground v.1.15,2013-12-28 17:16:00,
2013-12-28 11:21:00,46.0,37.5,30.07,SSW,213,9.0,9.0,72,0.00,,,0.00,Wunderground v.1.15,2013-12-28 17:21:00,
2013-12-28 11:31:00,46.4,37.1,30.06,SW,236,9.0,11.0,70,0.00,,,0.00,Wunderground v.1.15,2013-12-28 17:31:00,
2013-12-28 11:41:00,46.9,37.3,30.05,SW,228,8.0,8.0,69,0.00,,,0.00,Wunderground v.1.15,2013-12-28 17:41:00,
2013-12-28 11:46:00,47.2,37.5,30.05,SW,223,8.0,11.0,69,0.00,,,0.00,Wunderground v.1.15,2013-12-28 17:46:00,
2013-12-28 11:56:00,47.5,37.1,30.04,SW,232,9.0,9.0,67,0.00,,,0.00,Wunderground v.1.15,2013-12-28 17:56:00,
2013-12-28 12:06:00,48.0,37.9,30.04,SSW,207,9.0,14.0,68,0.00,,,0.00,Wunderground v.1.15,2013-12-28 18:06:00,
2013-12-28 12:11:00,48.2,38.1,30.03,SW,215,9.0,9.0,68,0.00,,,0.00,Wunderground v.1.15,2013-12-28 18:11:00,
2013-12-28 12:16:00,48.3,37.8,30.03,SSW,211,9.0,9.0,67,0.00,,,0.00,Wunderground v.1.15,2013-12-28 18:16:00,
2013-12-28 12:26:00,48.7,39.0,30.03,South,170,8.0,9.0,69,0.00,,,0.00,Wunderground v.1.15,2013-12-28 18:26:00,
2013-12-28 12:36:00,49.1,39.0,30.03,SW,219,8.0,13.0,68,0.00,,,0.00,Wunderground v.1.15,2013-12-28 18:36:00,
2013-12-28 12:41:00,49.2,39.1,30.03,SW,236,10.0,12.0,68,0.00,,,0.00,Wunderground v.1.15,2013-12-28 18:41:00,
2013-12-28 12:51:00,49.9,39.4,30.03,SSW,210,10.0,10.0,67,0.00,,,0.00,Wunderground v.1.15,2013-12-28 18:51:00,
2013-12-28 13:01:00,50.3,39.4,30.02,SW,235,9.0,9.0,66,0.00,,,0.00,Wunderground v.1.15,2013-12-28 19:01:00,
2013-12-28 13:11:00,50.9,39.5,30.02,SW,225,10.0,14.0,65,0.00,,,0.00,Wunderground v.1.15,2013-12-28 19:11:00,
2013-12-28 13:21:00,51.3,40.3,30.02,SSW,203,9.0,9.0,66,0.00,,,0.00,Wunderground v.1.15,2013-12-28 19:21:00,
2013-12-28 13:26:00,51.4,40.0,30.01,SW,229,9.0,12.0,65,0.00,,,0.00,Wunderground v.1.15,2013-12-28 19:26:00,
2013-12-28 13:36:00,51.7,40.7,30.01,SSW,209,9.0,10.0,66,0.00,,,0.00,Wunderground v.1.15,2013-12-28 19:36:00,
2013-12-28 13:41:00,51.8,40.0,30.00,SSW,209,9.0,9.0,64,0.00,,,0.00,Wunderground v.1.15,2013-12-28 19:41:00,
2013-12-28 13:51:00,51.9,39.7,30.00,SW,226,10.0,10.0,63,0.00,,,0.00,Wunderground v.1.15,2013-12-28 19:51:00,
2013-12-28 14:01:00,52.1,39.5,30.01,SSW,209,10.0,13.0,62,0.00,,,0.00,Wunderground v.1.15,2013-12-28 20:01:00,
2013-12-28 14:11:00,52.3,40.1,30.00,South,189,9.0,9.0,63,0.00,,,0.00,Wunderground v.1.15,2013-12-28 20:11:00,
2013-12-28 14:16:00,52.3,40.1,30.00,SSW,206,9.0,16.0,63,0.00,,,0.00,Wunderground v.1.15,2013-12-28 20:16:00,
2013-12-28 14:21:00,52.4,40.2,30.00,South,188,10.0,10.0,63,0.00,,,0.00,Wunderground v.1.15,2013-12-28 20:21:00,
2013-12-28 14:31:00,52.2,40.8,29.99,South,173,7.0,7.0,65,0.00,,,0.00,Wunderground v.1.15,2013-12-28 20:31:00,
2013-12-28 14:41:00,51.9,40.9,29.99,SW,229,6.0,6.0,66,0.00,,,0.00,Wunderground v.1.15,2013-12-28 20:41:00,
2013-12-28 14:51:00,51.7,40.7,29.99,SW,219,5.0,9.0,66,0.00,,,0.00,Wunderground v.1.15,2013-12-28 20:51:00,
2013-12-28 15:01:00,51.4,40.8,29.98,SSW,192,6.0,7.0,67,0.00,,,0.00,Wunderground v.1.15,2013-12-28 21:01:00,
2013-12-28 15:06:00,51.1,40.9,29.99,SW,216,6.0,7.0,68,0.00,,,0.00,Wunderground v.1.15,2013-12-28 21:06:00,
2013-12-28 15:16:00,50.8,40.6,29.98,SSW,213,6.0,6.0,68,0.00,,,0.00,Wunderground v.1.15,2013-12-28 21:16:00,
2013-12-28 15:26:00,50.2,40.0,29.98,SSE,159,5.0,5.0,68,0.00,,,0.00,Wunderground v.1.15,2013-12-28 21:26:00,
2013-12-28 15:36:00,49.5,39.7,29.98,South,186,5.0,6.0,69,0.00,,,0.00,Wunderground v.1.15,2013-12-28 21:36:00,
2013-12-28 15:46:00,48.7,39.4,29.98,SSW,196,4.0,5.0,70,0.00,,,0.00,Wunderground v.1.15,2013-12-28 21:46:00,
2013-12-28 15:56:00,48.0,39.0,29.97,South,175,4.0,6.0,71,0.00,,,0.00,Wunderground v.1.15,2013-12-28 21:56:00,
2013-12-28 16:06:00,46.9,38.3,29.97,SSW,194,5.0,6.0,72,0.00,,,0.00,Wunderground v.1.15,2013-12-28 22:06:00,
2013-12-28 16:11:00,46.3,38.5,29.97,South,180,4.0,4.0,74,0.00,,,0.00,Wunderground v.1.15,2013-12-28 22:11:00,
2013-12-28 16:21:00,45.1,37.6,29.97,SSW,198,4.0,5.0,75,0.00,,,0.00,Wunderground v.1.15,2013-12-28 22:21:00,
2013-12-28 16:31:00,44.0,37.3,29.98,South,170,5.0,9.0,77,0.00,,,0.00,Wunderground v.1.15,2013-12-28 22:31:00,
2013-12-28 16:36:00,43.6,36.9,29.98,South,171,5.0,9.0,77,0.00,,,0.00,Wunderground v.1.15,2013-12-28 22:36:00,
2013-12-28 16:46:00,42.9,36.5,29.97,South,187,5.0,6.0,78,0.00,,,0.00,Wunderground v.1.15,2013-12-28 22:46:00,
2013-12-28 16:56:00,42.4,36.3,29.97,SSW,211,5.0,5.0,79,0.00,,,0.00,Wunderground v.1.15,2013-12-28 22:56:00,
2013-12-28 17:01:00,42.2,36.2,29.97,South,184,4.0,4.0,79,0.00,,,0.00,Wunderground v.1.15,2013-12-28 23:01:00,
2013-12-28 17:11:00,41.6,35.9,29.97,SSW,205,4.0,5.0,80,0.00,,,0.00,Wunderground v.1.15,2013-12-28 23:11:00,